sensor_id;sensor_type;location;lat;lon;timestamp;P1;durP1;ratioP1;P2;durP2;ratioP2
30247;SDS011;17063;50.892;4.702;2024-03-23T00:56:20;11.47;;;1.87;;
30247;SDS011;17063;50.892;4.702;2024-03-23T00:58:46;9.90;;;2.30;;
30247;SDS011;17063;50.892;4.702;2024-03-23T01:01:12;7.40;;;1.93;;
30247;SDS011;17063;50.892;4.702;2024-03-23T01:03:38;6.73;;;1.80;;
30247;SDS011;17063;50.892;4.702;2024-03-23T01:06:03;10.90;;;2.40;;
30247;SDS011;17063;50.892;4.702;2024-03-23T01:08:29;6.60;;;2.37;;
30247;SDS011;17063;50.892;4.702;2024-03-23T01:10:59;7.23;;;1.77;;
30247;SDS011;17063;50.892;4.702;2024-03-23T01:13:26;10.83;;;2.30;;
30247;SDS011;17063;50.892;4.702;2024-03-23T01:15:53;9.13;;;2.50;;
30247;SDS011;17063;50.892;4.702;2024-03-23T01:18:20;10.43;;;2.53;;
30247;SDS011;17063;50.892;4.702;2024-03-23T01:20:47;11.53;;;2.03;;
30247;SDS011;17063;50.892;4.702;2024-03-23T01:23:13;11.67;;;2.40;;
30247;SDS011;17063;50.892;4.702;2024-03-23T01:25:39;10.70;;;2.50;;
30247;SDS011;17063;50.892;4.702;2024-03-23T01:28:05;11.07;;;3.57;;
30247;SDS011;17063;50.892;4.702;2024-03-23T01:30:35;12.97;;;2.60;;
30247;SDS011;17063;50.892;4.702;2024-03-23T01:33:01;8.57;;;2.20;;
30247;SDS011;17063;50.892;4.702;2024-03-23T01:35:28;10.83;;;3.30;;
30247;SDS011;17063;50.892;4.702;2024-03-23T01:37:54;10.33;;;2.87;;
30247;SDS011;17063;50.892;4.702;2024-03-23T01:40:20;15.93;;;3.30;;
30247;SDS011;17063;50.892;4.702;2024-03-23T01:43:00;11.97;;;3.30;;
30247;SDS011;17063;50.892;4.702;2024-03-23T01:45:29;13.87;;;3.50;;
30247;SDS011;17063;50.892;4.702;2024-03-23T01:47:56;11.73;;;3.57;;
30247;SDS011;17063;50.892;4.702;2024-03-23T01:50:23;10.40;;;3.33;;
30247;SDS011;17063;50.892;4.702;2024-03-23T01:52:49;14.00;;;3.10;;
30247;SDS011;17063;50.892;4.702;2024-03-23T01:55:16;13.30;;;3.77;;
30247;SDS011;17063;50.892;4.702;2024-03-23T01:57:42;11.83;;;3.63;;
30247;SDS011;17063;50.892;4.702;2024-03-23T02:00:07;11.60;;;3.33;;
30247;SDS011;17063;50.892;4.702;2024-03-23T02:02:44;9.10;;;3.60;;
30247;SDS011;17063;50.892;4.702;2024-03-23T02:05:11;9.40;;;3.37;;
30247;SDS011;17063;50.892;4.702;2024-03-23T02:07:40;12.30;;;3.80;;
30247;SDS011;17063;50.892;4.702;2024-03-23T02:10:08;13.77;;;3.30;;
30247;SDS011;17063;50.892;4.702;2024-03-23T02:12:35;9.87;;;2.97;;
30247;SDS011;17063;50.892;4.702;2024-03-23T02:15:01;7.83;;;2.70;;
30247;SDS011;17063;50.892;4.702;2024-03-23T02:17:27;7.03;;;2.73;;
30247;SDS011;17063;50.892;4.702;2024-03-23T02:19:54;12.60;;;3.50;;
30247;SDS011;17063;50.892;4.702;2024-03-23T02:22:20;9.67;;;3.37;;
30247;SDS011;17063;50.892;4.702;2024-03-23T02:24:46;9.97;;;3.27;;
30247;SDS011;17063;50.892;4.702;2024-03-23T02:27:11;9.20;;;3.30;;
30247;SDS011;17063;50.892;4.702;2024-03-23T02:29:37;7.00;;;3.50;;
30247;SDS011;17063;50.892;4.702;2024-03-23T02:32:03;10.70;;;3.20;;
30247;SDS011;17063;50.892;4.702;2024-03-23T02:34:29;8.27;;;3.43;;
30247;SDS011;17063;50.892;4.702;2024-03-23T02:36:55;12.90;;;3.50;;
30247;SDS011;17063;50.892;4.702;2024-03-23T02:39:21;11.87;;;2.97;;
30247;SDS011;17063;50.892;4.702;2024-03-23T02:41:47;9.17;;;3.30;;
30247;SDS011;17063;50.892;4.702;2024-03-23T02:44:13;10.47;;;3.73;;
30247;SDS011;17063;50.892;4.702;2024-03-23T02:46:39;10.37;;;3.20;;
30247;SDS011;17063;50.892;4.702;2024-03-23T02:49:05;10.70;;;3.33;;
30247;SDS011;17063;50.892;4.702;2024-03-23T02:51:31;10.23;;;3.30;;
30247;SDS011;17063;50.892;4.702;2024-03-23T02:53:57;11.00;;;3.40;;
30247;SDS011;17063;50.892;4.702;2024-03-23T02:56:23;7.80;;;3.60;;
30247;SDS011;17063;50.892;4.702;2024-03-23T02:58:49;14.07;;;4.07;;
30247;SDS011;17063;50.892;4.702;2024-03-23T03:01:15;11.83;;;4.20;;
30247;SDS011;17063;50.892;4.702;2024-03-23T03:03:41;12.87;;;4.77;;
30247;SDS011;17063;50.892;4.702;2024-03-23T03:06:07;14.97;;;5.03;;
30247;SDS011;17063;50.892;4.702;2024-03-23T03:08:32;10.17;;;4.87;;
30247;SDS011;17063;50.892;4.702;2024-03-23T03:10:58;13.07;;;5.53;;
30247;SDS011;17063;50.892;4.702;2024-03-23T03:13:24;12.23;;;4.63;;
30247;SDS011;17063;50.892;4.702;2024-03-23T03:15:50;14.93;;;4.77;;
30247;SDS011;17063;50.892;4.702;2024-03-23T03:18:15;13.17;;;4.93;;
30247;SDS011;17063;50.892;4.702;2024-03-23T03:20:41;16.03;;;4.73;;
30247;SDS011;17063;50.892;4.702;2024-03-23T03:23:07;19.33;;;4.73;;
30247;SDS011;17063;50.892;4.702;2024-03-23T03:25:33;14.77;;;4.23;;
30247;SDS011;17063;50.892;4.702;2024-03-23T03:27:59;14.50;;;4.60;;
30247;SDS011;17063;50.892;4.702;2024-03-23T03:30:25;23.23;;;4.23;;
30247;SDS011;17063;50.892;4.702;2024-03-23T03:32:53;11.43;;;4.33;;
30247;SDS011;17063;50.892;4.702;2024-03-23T03:39:18;18.20;;;4.23;;
30247;SDS011;17063;50.892;4.702;2024-03-23T03:41:44;13.70;;;4.00;;
30247;SDS011;17063;50.892;4.702;2024-03-23T03:44:11;14.87;;;4.23;;
30247;SDS011;17063;50.892;4.702;2024-03-23T03:46:37;17.97;;;3.93;;
30247;SDS011;17063;50.892;4.702;2024-03-23T03:49:03;10.50;;;4.17;;
30247;SDS011;17063;50.892;4.702;2024-03-23T03:51:29;16.40;;;4.33;;
30247;SDS011;17063;50.892;4.702;2024-03-23T03:53:54;14.57;;;4.47;;
30247;SDS011;17063;50.892;4.702;2024-03-23T03:56:20;17.43;;;4.30;;
30247;SDS011;17063;50.892;4.702;2024-03-23T03:58:47;10.53;;;3.43;;
30247;SDS011;17063;50.892;4.702;2024-03-23T04:01:13;23.37;;;4.77;;
30247;SDS011;17063;50.892;4.702;2024-03-23T04:03:40;14.57;;;4.53;;
30247;SDS011;17063;50.892;4.702;2024-03-23T04:06:09;16.33;;;4.47;;
30247;SDS011;17063;50.892;4.702;2024-03-23T04:08:35;16.80;;;4.50;;
30247;SDS011;17063;50.892;4.702;2024-03-23T04:11:01;17.37;;;4.60;;
30247;SDS011;17063;50.892;4.702;2024-03-23T04:13:28;16.03;;;4.30;;
30247;SDS011;17063;50.892;4.702;2024-03-23T04:15:54;11.93;;;4.30;;
30247;SDS011;17063;50.892;4.702;2024-03-23T04:18:21;16.47;;;5.03;;
30247;SDS011;17063;50.892;4.702;2024-03-23T04:20:48;13.63;;;4.77;;
30247;SDS011;17063;50.892;4.702;2024-03-23T04:23:14;13.33;;;5.20;;
30247;SDS011;17063;50.892;4.702;2024-03-23T04:25:40;17.30;;;5.37;;
30247;SDS011;17063;50.892;4.702;2024-03-23T04:28:06;19.10;;;5.17;;
30247;SDS011;17063;50.892;4.702;2024-03-23T04:30:32;16.43;;;6.03;;
30247;SDS011;17063;50.892;4.702;2024-03-23T04:32:58;15.73;;;4.20;;
30247;SDS011;17063;50.892;4.702;2024-03-23T04:35:24;16.33;;;4.50;;
30247;SDS011;17063;50.892;4.702;2024-03-23T04:37:51;17.60;;;5.03;;
30247;SDS011;17063;50.892;4.702;2024-03-23T04:40:21;19.93;;;4.43;;
30247;SDS011;17063;50.892;4.702;2024-03-23T04:42:47;16.63;;;4.87;;
30247;SDS011;17063;50.892;4.702;2024-03-23T04:45:13;21.53;;;4.63;;
30247;SDS011;17063;50.892;4.702;2024-03-23T04:47:39;16.87;;;5.10;;
30247;SDS011;17063;50.892;4.702;2024-03-23T04:50:05;13.97;;;5.00;;
30247;SDS011;17063;50.892;4.702;2024-03-23T04:52:30;13.23;;;4.67;;
30247;SDS011;17063;50.892;4.702;2024-03-23T04:54:57;14.43;;;4.37;;
30247;SDS011;17063;50.892;4.702;2024-03-23T04:57:23;16.10;;;4.77;;
30247;SDS011;17063;50.892;4.702;2024-03-23T04:59:49;16.23;;;4.60;;
30247;SDS011;17063;50.892;4.702;2024-03-23T05:02:15;11.70;;;3.93;;
30247;SDS011;17063;50.892;4.702;2024-03-23T05:04:41;16.93;;;5.03;;
30247;SDS011;17063;50.892;4.702;2024-03-23T05:07:07;16.30;;;4.17;;
30247;SDS011;17063;50.892;4.702;2024-03-23T05:09:33;14.40;;;4.57;;
30247;SDS011;17063;50.892;4.702;2024-03-23T05:11:59;17.47;;;4.93;;
30247;SDS011;17063;50.892;4.702;2024-03-23T05:14:28;15.67;;;4.63;;
30247;SDS011;17063;50.892;4.702;2024-03-23T05:16:54;10.53;;;3.93;;
30247;SDS011;17063;50.892;4.702;2024-03-23T05:19:21;13.30;;;3.53;;
30247;SDS011;17063;50.892;4.702;2024-03-23T05:21:47;13.93;;;3.63;;
30247;SDS011;17063;50.892;4.702;2024-03-23T05:24:13;12.63;;;3.57;;
30247;SDS011;17063;50.892;4.702;2024-03-23T05:26:39;16.90;;;3.50;;
30247;SDS011;17063;50.892;4.702;2024-03-23T05:29:05;9.77;;;3.70;;
30247;SDS011;17063;50.892;4.702;2024-03-23T05:31:36;13.33;;;4.27;;
30247;SDS011;17063;50.892;4.702;2024-03-23T05:34:02;13.87;;;3.57;;
30247;SDS011;17063;50.892;4.702;2024-03-23T05:36:28;13.43;;;3.93;;
30247;SDS011;17063;50.892;4.702;2024-03-23T05:38:58;9.80;;;3.20;;
30247;SDS011;17063;50.892;4.702;2024-03-23T05:41:24;15.87;;;3.97;;
30247;SDS011;17063;50.892;4.702;2024-03-23T05:43:50;13.47;;;3.77;;
30247;SDS011;17063;50.892;4.702;2024-03-23T05:46:16;11.37;;;3.13;;
30247;SDS011;17063;50.892;4.702;2024-03-23T05:48:43;19.87;;;4.40;;
30247;SDS011;17063;50.892;4.702;2024-03-23T05:51:09;10.00;;;3.13;;
30247;SDS011;17063;50.892;4.702;2024-03-23T05:53:35;15.83;;;4.13;;
30247;SDS011;17063;50.892;4.702;2024-03-23T05:56:02;13.77;;;4.07;;
30247;SDS011;17063;50.892;4.702;2024-03-23T05:58:32;13.73;;;3.40;;
30247;SDS011;17063;50.892;4.702;2024-03-23T06:01:01;16.77;;;3.40;;
30247;SDS011;17063;50.892;4.702;2024-03-23T06:03:30;18.37;;;3.83;;
30247;SDS011;17063;50.892;4.702;2024-03-23T06:05:56;14.00;;;3.33;;
30247;SDS011;17063;50.892;4.702;2024-03-23T06:08:22;8.87;;;3.50;;
30247;SDS011;17063;50.892;4.702;2024-03-23T06:10:49;18.10;;;4.27;;
30247;SDS011;17063;50.892;4.702;2024-03-23T06:13:16;22.97;;;5.00;;
30247;SDS011;17063;50.892;4.702;2024-03-23T06:15:42;10.53;;;4.60;;
30247;SDS011;17063;50.892;4.702;2024-03-23T06:18:09;12.63;;;4.10;;
30247;SDS011;17063;50.892;4.702;2024-03-23T06:20:34;13.00;;;3.33;;
30247;SDS011;17063;50.892;4.702;2024-03-23T06:23:00;16.67;;;4.40;;
30247;SDS011;17063;50.892;4.702;2024-03-23T06:25:27;15.37;;;4.40;;
30247;SDS011;17063;50.892;4.702;2024-03-23T06:27:53;12.97;;;3.60;;
30247;SDS011;17063;50.892;4.702;2024-03-23T06:30:19;10.30;;;3.40;;
30247;SDS011;17063;50.892;4.702;2024-03-23T06:32:45;9.40;;;3.03;;
30247;SDS011;17063;50.892;4.702;2024-03-23T06:35:11;16.00;;;3.73;;
30247;SDS011;17063;50.892;4.702;2024-03-23T06:37:37;9.63;;;3.07;;
30247;SDS011;17063;50.892;4.702;2024-03-23T06:40:04;13.50;;;3.00;;
30247;SDS011;17063;50.892;4.702;2024-03-23T06:42:34;13.53;;;2.80;;
30247;SDS011;17063;50.892;4.702;2024-03-23T06:44:59;11.43;;;2.70;;
30247;SDS011;17063;50.892;4.702;2024-03-23T06:47:25;8.93;;;3.20;;
30247;SDS011;17063;50.892;4.702;2024-03-23T06:49:51;12.23;;;2.87;;
30247;SDS011;17063;50.892;4.702;2024-03-23T06:52:18;11.77;;;2.47;;
30247;SDS011;17063;50.892;4.702;2024-03-23T06:54:43;11.90;;;2.63;;
30247;SDS011;17063;50.892;4.702;2024-03-23T06:57:11;15.53;;;2.87;;
30247;SDS011;17063;50.892;4.702;2024-03-23T06:59:37;13.70;;;3.57;;
30247;SDS011;17063;50.892;4.702;2024-03-23T07:02:05;16.27;;;2.57;;
30247;SDS011;17063;50.892;4.702;2024-03-23T07:04:34;15.57;;;3.03;;
30247;SDS011;17063;50.892;4.702;2024-03-23T07:07:00;11.40;;;2.63;;
30247;SDS011;17063;50.892;4.702;2024-03-23T07:09:27;14.17;;;2.20;;
30247;SDS011;17063;50.892;4.702;2024-03-23T07:11:54;9.13;;;2.80;;
30247;SDS011;17063;50.892;4.702;2024-03-23T07:14:21;9.80;;;2.20;;
30247;SDS011;17063;50.892;4.702;2024-03-23T07:16:47;17.53;;;4.57;;
30247;SDS011;17063;50.892;4.702;2024-03-23T07:19:18;12.37;;;2.30;;
30247;SDS011;17063;50.892;4.702;2024-03-23T07:21:44;10.40;;;2.37;;
30247;SDS011;17063;50.892;4.702;2024-03-23T07:24:10;9.07;;;2.53;;
30247;SDS011;17063;50.892;4.702;2024-03-23T07:26:36;9.80;;;2.60;;
30247;SDS011;17063;50.892;4.702;2024-03-23T07:29:03;19.77;;;2.37;;
30247;SDS011;17063;50.892;4.702;2024-03-23T07:31:29;10.67;;;2.20;;
30247;SDS011;17063;50.892;4.702;2024-03-23T07:33:56;11.47;;;2.53;;
30247;SDS011;17063;50.892;4.702;2024-03-23T07:36:22;11.00;;;2.40;;
30247;SDS011;17063;50.892;4.702;2024-03-23T07:38:48;8.03;;;2.30;;
30247;SDS011;17063;50.892;4.702;2024-03-23T07:41:15;10.40;;;1.70;;
30247;SDS011;17063;50.892;4.702;2024-03-23T07:43:43;9.77;;;2.07;;
30247;SDS011;17063;50.892;4.702;2024-03-23T07:46:09;6.10;;;2.10;;
30247;SDS011;17063;50.892;4.702;2024-03-23T07:48:35;9.90;;;2.10;;
30247;SDS011;17063;50.892;4.702;2024-03-23T07:51:02;3.07;;;1.47;;
30247;SDS011;17063;50.892;4.702;2024-03-23T07:53:33;8.13;;;1.73;;
30247;SDS011;17063;50.892;4.702;2024-03-23T07:56:00;8.03;;;1.67;;
30247;SDS011;17063;50.892;4.702;2024-03-23T07:58:26;9.50;;;1.70;;
30247;SDS011;17063;50.892;4.702;2024-03-23T08:00:56;7.13;;;1.23;;
30247;SDS011;17063;50.892;4.702;2024-03-23T08:03:22;7.73;;;2.07;;
30247;SDS011;17063;50.892;4.702;2024-03-23T08:05:48;5.70;;;1.50;;
30247;SDS011;17063;50.892;4.702;2024-03-23T08:08:14;9.07;;;1.70;;
30247;SDS011;17063;50.892;4.702;2024-03-23T08:10:47;9.67;;;2.10;;
30247;SDS011;17063;50.892;4.702;2024-03-23T08:13:16;9.13;;;2.90;;
30247;SDS011;17063;50.892;4.702;2024-03-23T08:15:42;7.80;;;2.10;;
30247;SDS011;17063;50.892;4.702;2024-03-23T08:18:12;5.67;;;2.03;;
30247;SDS011;17063;50.892;4.702;2024-03-23T08:20:54;8.37;;;2.10;;
30247;SDS011;17063;50.892;4.702;2024-03-23T08:23:35;6.03;;;1.73;;
30247;SDS011;17063;50.892;4.702;2024-03-23T08:26:07;8.43;;;2.00;;
30247;SDS011;17063;50.892;4.702;2024-03-23T08:28:34;10.70;;;2.50;;
30247;SDS011;17063;50.892;4.702;2024-03-23T08:31:05;12.90;;;2.37;;
30247;SDS011;17063;50.892;4.702;2024-03-23T08:33:35;9.20;;;2.20;;
30247;SDS011;17063;50.892;4.702;2024-03-23T08:38:55;9.73;;;2.20;;
30247;SDS011;17063;50.892;4.702;2024-03-23T08:41:24;13.80;;;2.50;;
30247;SDS011;17063;50.892;4.702;2024-03-23T08:43:50;6.63;;;2.00;;
30247;SDS011;17063;50.892;4.702;2024-03-23T08:46:16;8.57;;;2.10;;
30247;SDS011;17063;50.892;4.702;2024-03-23T08:48:46;9.67;;;2.10;;
30247;SDS011;17063;50.892;4.702;2024-03-23T08:51:15;12.30;;;1.83;;
30247;SDS011;17063;50.892;4.702;2024-03-23T08:53:42;18.23;;;2.73;;
30247;SDS011;17063;50.892;4.702;2024-03-23T08:56:09;8.53;;;1.77;;
30247;SDS011;17063;50.892;4.702;2024-03-23T08:58:36;9.47;;;2.30;;
30247;SDS011;17063;50.892;4.702;2024-03-23T09:01:09;10.83;;;2.13;;
30247;SDS011;17063;50.892;4.702;2024-03-23T09:03:36;11.70;;;2.23;;
30247;SDS011;17063;50.892;4.702;2024-03-23T09:06:06;11.13;;;2.30;;
30247;SDS011;17063;50.892;4.702;2024-03-23T09:08:33;9.57;;;2.40;;
30247;SDS011;17063;50.892;4.702;2024-03-23T09:11:05;10.27;;;2.13;;
30247;SDS011;17063;50.892;4.702;2024-03-23T09:13:32;13.40;;;2.50;;
30247;SDS011;17063;50.892;4.702;2024-03-23T09:16:02;10.23;;;1.97;;
30247;SDS011;17063;50.892;4.702;2024-03-23T09:18:30;4.43;;;1.90;;
30247;SDS011;17063;50.892;4.702;2024-03-23T09:20:58;8.50;;;1.67;;
30247;SDS011;17063;50.892;4.702;2024-03-23T09:23:24;6.83;;;1.67;;
30247;SDS011;17063;50.892;4.702;2024-03-23T09:25:51;9.30;;;2.00;;
30247;SDS011;17063;50.892;4.702;2024-03-23T09:28:16;10.70;;;2.10;;
30247;SDS011;17063;50.892;4.702;2024-03-23T09:30:43;9.37;;;2.00;;
30247;SDS011;17063;50.892;4.702;2024-03-23T09:33:12;8.70;;;2.27;;
30247;SDS011;17063;50.892;4.702;2024-03-23T09:35:39;10.97;;;1.53;;
30247;SDS011;17063;50.892;4.702;2024-03-23T09:38:06;6.33;;;1.97;;
30247;SDS011;17063;50.892;4.702;2024-03-23T09:40:41;13.43;;;2.53;;
30247;SDS011;17063;50.892;4.702;2024-03-23T09:43:08;15.10;;;2.30;;
30247;SDS011;17063;50.892;4.702;2024-03-23T09:45:41;3.83;;;1.50;;
30247;SDS011;17063;50.892;4.702;2024-03-23T09:48:09;10.67;;;1.83;;
30247;SDS011;17063;50.892;4.702;2024-03-23T09:50:39;14.13;;;2.13;;
30247;SDS011;17063;50.892;4.702;2024-03-23T09:53:08;7.40;;;1.80;;
30247;SDS011;17063;50.892;4.702;2024-03-23T09:55:38;7.13;;;1.87;;
30247;SDS011;17063;50.892;4.702;2024-03-23T09:58:05;6.73;;;1.67;;
30247;SDS011;17063;50.892;4.702;2024-03-23T10:00:31;14.03;;;1.97;;
30247;SDS011;17063;50.892;4.702;2024-03-23T10:03:00;8.40;;;1.90;;
30247;SDS011;17063;50.892;4.702;2024-03-23T10:05:30;9.30;;;2.30;;
30247;SDS011;17063;50.892;4.702;2024-03-23T10:10:40;6.77;;;1.80;;
30247;SDS011;17063;50.892;4.702;2024-03-23T10:13:10;7.63;;;1.93;;
30247;SDS011;17063;50.892;4.702;2024-03-23T10:15:39;6.97;;;1.90;;
30247;SDS011;17063;50.892;4.702;2024-03-23T10:18:18;12.43;;;2.60;;
30247;SDS011;17063;50.892;4.702;2024-03-23T10:20:52;12.00;;;1.97;;
30247;SDS011;17063;50.892;4.702;2024-03-23T10:23:26;9.20;;;2.13;;
30247;SDS011;17063;50.892;4.702;2024-03-23T10:25:52;10.63;;;1.97;;
30247;SDS011;17063;50.892;4.702;2024-03-23T10:28:18;8.63;;;1.93;;
30247;SDS011;17063;50.892;4.702;2024-03-23T10:30:44;8.07;;;1.60;;
30247;SDS011;17063;50.892;4.702;2024-03-23T10:33:10;9.30;;;1.93;;
30247;SDS011;17063;50.892;4.702;2024-03-23T10:35:37;7.27;;;1.70;;
30247;SDS011;17063;50.892;4.702;2024-03-23T10:38:07;6.47;;;1.73;;
30247;SDS011;17063;50.892;4.702;2024-03-23T10:40:34;7.40;;;1.90;;
30247;SDS011;17063;50.892;4.702;2024-03-23T10:43:05;10.00;;;1.70;;
30247;SDS011;17063;50.892;4.702;2024-03-23T10:45:32;5.20;;;1.77;;
30247;SDS011;17063;50.892;4.702;2024-03-23T10:47:58;5.37;;;1.47;;
30247;SDS011;17063;50.892;4.702;2024-03-23T10:50:23;5.70;;;1.90;;
30247;SDS011;17063;50.892;4.702;2024-03-23T10:52:49;8.57;;;1.60;;
30247;SDS011;17063;50.892;4.702;2024-03-23T10:55:19;3.90;;;1.53;;
30247;SDS011;17063;50.892;4.702;2024-03-23T10:57:48;4.03;;;1.43;;
30247;SDS011;17063;50.892;4.702;2024-03-23T11:00:18;5.67;;;1.57;;
30247;SDS011;17063;50.892;4.702;2024-03-23T11:02:47;5.60;;;1.47;;
30247;SDS011;17063;50.892;4.702;2024-03-23T11:07:52;5.17;;;1.60;;
30247;SDS011;17063;50.892;4.702;2024-03-23T11:10:29;5.33;;;1.30;;
30247;SDS011;17063;50.892;4.702;2024-03-23T11:13:38;6.80;;;1.57;;
30247;SDS011;17063;50.892;4.702;2024-03-23T11:15:48;4.77;;;1.30;;
30247;SDS011;17063;50.892;4.702;2024-03-23T11:18:19;3.33;;;1.07;;
30247;SDS011;17063;50.892;4.702;2024-03-23T11:20:46;7.97;;;1.97;;
30247;SDS011;17063;50.892;4.702;2024-03-23T11:23:27;7.37;;;1.60;;
30247;SDS011;17063;50.892;4.702;2024-03-23T11:25:54;3.10;;;1.13;;
30247;SDS011;17063;50.892;4.702;2024-03-23T11:28:20;6.00;;;1.50;;
30247;SDS011;17063;50.892;4.702;2024-03-23T11:30:47;3.47;;;1.37;;
30247;SDS011;17063;50.892;4.702;2024-03-23T11:33:12;5.00;;;1.40;;
30247;SDS011;17063;50.892;4.702;2024-03-23T11:35:39;4.97;;;1.30;;
30247;SDS011;17063;50.892;4.702;2024-03-23T11:38:12;1.47;;;0.90;;
30247;SDS011;17063;50.892;4.702;2024-03-23T11:40:42;5.23;;;1.33;;
30247;SDS011;17063;50.892;4.702;2024-03-23T11:43:09;8.07;;;1.20;;
30247;SDS011;17063;50.892;4.702;2024-03-23T11:48:13;4.13;;;1.27;;
30247;SDS011;17063;50.892;4.702;2024-03-23T11:50:45;3.87;;;1.00;;
30247;SDS011;17063;50.892;4.702;2024-03-23T11:53:18;4.17;;;1.10;;
30247;SDS011;17063;50.892;4.702;2024-03-23T11:58:22;2.10;;;1.00;;
30247;SDS011;17063;50.892;4.702;2024-03-23T12:00:49;3.60;;;0.90;;
30247;SDS011;17063;50.892;4.702;2024-03-23T12:03:23;2.30;;;0.80;;
30247;SDS011;17063;50.892;4.702;2024-03-23T12:05:54;6.03;;;1.17;;
30247;SDS011;17063;50.892;4.702;2024-03-23T12:08:21;6.63;;;1.20;;
30247;SDS011;17063;50.892;4.702;2024-03-23T12:11:13;4.00;;;1.23;;
30247;SDS011;17063;50.892;4.702;2024-03-23T12:13:40;4.50;;;1.20;;
30247;SDS011;17063;50.892;4.702;2024-03-23T12:16:12;5.77;;;1.20;;
30247;SDS011;17063;50.892;4.702;2024-03-23T12:18:43;6.33;;;1.00;;
30247;SDS011;17063;50.892;4.702;2024-03-23T12:21:10;3.27;;;1.10;;
30247;SDS011;17063;50.892;4.702;2024-03-23T12:23:38;1.90;;;1.13;;
30247;SDS011;17063;50.892;4.702;2024-03-23T12:26:05;2.50;;;0.83;;
30247;SDS011;17063;50.892;4.702;2024-03-23T12:28:32;3.20;;;1.03;;
30247;SDS011;17063;50.892;4.702;2024-03-23T12:30:58;2.57;;;1.00;;
30247;SDS011;17063;50.892;4.702;2024-03-23T12:33:24;6.13;;;1.50;;
30247;SDS011;17063;50.892;4.702;2024-03-23T12:35:51;5.20;;;1.47;;
30247;SDS011;17063;50.892;4.702;2024-03-23T12:38:18;1.77;;;1.00;;
30247;SDS011;17063;50.892;4.702;2024-03-23T12:40:47;9.20;;;1.33;;
30247;SDS011;17063;50.892;4.702;2024-03-23T12:43:19;7.27;;;1.37;;
30247;SDS011;17063;50.892;4.702;2024-03-23T12:46:04;1.43;;;0.90;;
30247;SDS011;17063;50.892;4.702;2024-03-23T12:48:33;2.33;;;0.83;;
30247;SDS011;17063;50.892;4.702;2024-03-23T12:50:59;4.10;;;1.20;;
30247;SDS011;17063;50.892;4.702;2024-03-23T12:53:33;4.07;;;1.00;;
30247;SDS011;17063;50.892;4.702;2024-03-23T12:56:00;2.13;;;0.70;;
30247;SDS011;17063;50.892;4.702;2024-03-23T12:58:26;1.40;;;0.67;;
30247;SDS011;17063;50.892;4.702;2024-03-23T13:00:53;3.67;;;0.83;;
30247;SDS011;17063;50.892;4.702;2024-03-23T13:03:19;2.50;;;0.63;;
30247;SDS011;17063;50.892;4.702;2024-03-23T13:05:51;3.17;;;1.00;;
30247;SDS011;17063;50.892;4.702;2024-03-23T13:08:23;3.50;;;1.13;;
30247;SDS011;17063;50.892;4.702;2024-03-23T13:10:52;3.30;;;1.07;;
30247;SDS011;17063;50.892;4.702;2024-03-23T13:13:19;2.73;;;1.00;;
30247;SDS011;17063;50.892;4.702;2024-03-23T13:15:51;4.13;;;0.97;;
30247;SDS011;17063;50.892;4.702;2024-03-23T13:18:17;4.50;;;1.07;;
30247;SDS011;17063;50.892;4.702;2024-03-23T13:20:43;6.33;;;1.23;;
30247;SDS011;17063;50.892;4.702;2024-03-23T13:23:08;5.03;;;1.03;;
30247;SDS011;17063;50.892;4.702;2024-03-23T13:25:34;4.97;;;1.20;;
30247;SDS011;17063;50.892;4.702;2024-03-23T13:45:09;4.83;;;1.40;;
30247;SDS011;17063;50.892;4.702;2024-03-23T13:47:43;5.17;;;1.10;;
30247;SDS011;17063;50.892;4.702;2024-03-23T13:50:09;6.00;;;1.23;;
30247;SDS011;17063;50.892;4.702;2024-03-23T13:52:35;3.37;;;1.00;;
30247;SDS011;17063;50.892;4.702;2024-03-23T13:55:01;4.73;;;1.17;;
30247;SDS011;17063;50.892;4.702;2024-03-23T13:57:27;4.20;;;1.20;;
30247;SDS011;17063;50.892;4.702;2024-03-23T13:59:53;5.37;;;1.33;;
30247;SDS011;17063;50.892;4.702;2024-03-23T14:02:24;5.70;;;1.43;;
30247;SDS011;17063;50.892;4.702;2024-03-23T14:04:51;4.50;;;1.13;;
30247;SDS011;17063;50.892;4.702;2024-03-23T14:07:18;4.53;;;1.00;;
30247;SDS011;17063;50.892;4.702;2024-03-23T14:09:45;4.13;;;1.03;;
30247;SDS011;17063;50.892;4.702;2024-03-23T14:12:11;3.70;;;1.10;;
30247;SDS011;17063;50.892;4.702;2024-03-23T14:14:38;6.80;;;1.47;;
30247;SDS011;17063;50.892;4.702;2024-03-23T14:17:04;4.27;;;1.10;;
30247;SDS011;17063;50.892;4.702;2024-03-23T14:19:30;4.27;;;1.03;;
30247;SDS011;17063;50.892;4.702;2024-03-23T14:21:56;3.40;;;1.17;;
30247;SDS011;17063;50.892;4.702;2024-03-23T14:24:23;2.63;;;0.93;;
30247;SDS011;17063;50.892;4.702;2024-03-23T14:26:49;6.10;;;1.57;;
30247;SDS011;17063;50.892;4.702;2024-03-23T14:29:16;5.10;;;1.40;;
30247;SDS011;17063;50.892;4.702;2024-03-23T14:31:42;6.63;;;1.47;;
30247;SDS011;17063;50.892;4.702;2024-03-23T14:34:08;6.37;;;1.60;;
30247;SDS011;17063;50.892;4.702;2024-03-23T14:36:35;3.97;;;1.10;;
30247;SDS011;17063;50.892;4.702;2024-03-23T14:39:01;6.17;;;1.30;;
30247;SDS011;17063;50.892;4.702;2024-03-23T14:41:28;4.90;;;1.10;;
30247;SDS011;17063;50.892;4.702;2024-03-23T14:43:53;4.27;;;1.27;;
30247;SDS011;17063;50.892;4.702;2024-03-23T14:46:20;3.67;;;1.03;;
30247;SDS011;17063;50.892;4.702;2024-03-23T14:48:46;3.43;;;1.20;;
30247;SDS011;17063;50.892;4.702;2024-03-23T14:51:12;5.17;;;1.67;;
30247;SDS011;17063;50.892;4.702;2024-03-23T14:53:38;6.07;;;1.50;;
30247;SDS011;17063;50.892;4.702;2024-03-23T14:56:06;6.10;;;1.30;;
30247;SDS011;17063;50.892;4.702;2024-03-23T14:58:32;3.23;;;1.33;;
30247;SDS011;17063;50.892;4.702;2024-03-23T15:01:04;2.97;;;1.33;;
30247;SDS011;17063;50.892;4.702;2024-03-23T15:03:34;4.63;;;1.30;;
30247;SDS011;17063;50.892;4.702;2024-03-23T15:06:00;5.93;;;1.13;;
30247;SDS011;17063;50.892;4.702;2024-03-23T15:08:27;7.70;;;1.33;;
30247;SDS011;17063;50.892;4.702;2024-03-23T15:10:58;7.10;;;1.33;;
30247;SDS011;17063;50.892;4.702;2024-03-23T15:13:25;5.87;;;1.47;;
30247;SDS011;17063;50.892;4.702;2024-03-23T15:15:50;3.23;;;1.20;;
30247;SDS011;17063;50.892;4.702;2024-03-23T15:18:17;5.23;;;1.30;;
30247;SDS011;17063;50.892;4.702;2024-03-23T15:21:00;4.07;;;1.03;;
30247;SDS011;17063;50.892;4.702;2024-03-23T15:23:35;3.03;;;1.20;;
30247;SDS011;17063;50.892;4.702;2024-03-23T15:26:01;8.97;;;1.50;;
30247;SDS011;17063;50.892;4.702;2024-03-23T15:28:28;7.13;;;1.80;;
30247;SDS011;17063;50.892;4.702;2024-03-23T15:31:08;7.57;;;1.10;;
30247;SDS011;17063;50.892;4.702;2024-03-23T15:33:35;3.60;;;0.97;;
30247;SDS011;17063;50.892;4.702;2024-03-23T15:36:11;6.60;;;0.90;;
30247;SDS011;17063;50.892;4.702;2024-03-23T15:38:37;2.50;;;1.30;;
30247;SDS011;17063;50.892;4.702;2024-03-23T15:41:06;3.40;;;1.27;;
30247;SDS011;17063;50.892;4.702;2024-03-23T15:43:33;7.67;;;1.33;;
30247;SDS011;17063;50.892;4.702;2024-03-23T15:45:59;7.17;;;1.30;;
30247;SDS011;17063;50.892;4.702;2024-03-23T15:48:26;6.20;;;1.20;;
30247;SDS011;17063;50.892;4.702;2024-03-23T15:51:02;5.80;;;1.33;;
30247;SDS011;17063;50.892;4.702;2024-03-23T15:53:31;9.20;;;1.57;;
30247;SDS011;17063;50.892;4.702;2024-03-23T15:56:00;6.40;;;1.30;;
30247;SDS011;17063;50.892;4.702;2024-03-23T15:58:27;5.27;;;1.20;;
30247;SDS011;17063;50.892;4.702;2024-03-23T16:00:57;3.53;;;1.00;;
30247;SDS011;17063;50.892;4.702;2024-03-23T16:03:24;8.57;;;1.17;;
30247;SDS011;17063;50.892;4.702;2024-03-23T16:05:52;5.20;;;2.40;;
30247;SDS011;17063;50.892;4.702;2024-03-23T16:08:19;6.50;;;2.13;;
30247;SDS011;17063;50.892;4.702;2024-03-23T16:10:46;5.73;;;1.77;;
30247;SDS011;17063;50.892;4.702;2024-03-23T16:13:12;4.20;;;1.57;;
30247;SDS011;17063;50.892;4.702;2024-03-23T16:15:38;3.87;;;1.30;;